Time;durP1;ratioP1;P1;durP2;ratioP2;P2;SDS_P1;SDS_P2;PMS_P1;PMS_P2;Temp;Humidity;BMP_temperature;BMP_pressure;BME280_temperature;BME280_humidity;BME280_pressure;Samples;Min_cycle;Max_cycle;Signal;HPM_P1;HPM_P2
2021/09/30 00:01:04;;;;;;;7.30;3.80;;;;;;;9.31;87.15;101289.38;115767;1192;72151;-81
2021/09/30 00:03:31;;;;;;;4.20;3.00;;;;;;;9.35;87.31;101292.71;115714;1192;73600;-81
2021/09/30 00:05:57;;;;;;;3.00;2.30;;;;;;;9.39;86.80;101292.52;115775;1193;58909;-81
2021/09/30 00:08:24;;;;;;;8.30;3.00;;;;;;;9.44;86.57;101295.80;115622;1193;58882;-81
2021/09/30 00:11:12;;;;;;;5.60;2.40;;;;;;;9.48;86.41;101303.78;115738;1192;74948;-81
2021/09/30 00:13:44;;;;;;;5.60;2.00;;;;;;;9.54;85.80;101308.00;115640;1193;71898;-81
2021/09/30 00:32:46;;;;;;;5.60;2.30;;;;;;;9.58;84.90;101326.48;115833;1192;62168;-81
2021/09/30 00:46:07;;;;;;;5.30;2.10;;;;;;;9.45;84.86;101336.80;115770;1192;60320;-81
2021/09/30 00:48:50;;;;;;;5.10;1.50;;;;;;;9.44;84.87;101339.92;115795;1192;61272;-81
2021/09/30 00:51:32;;;;;;;2.90;1.80;;;;;;;9.43;84.63;101346.56;115611;1193;73277;-81
2021/09/30 01:26:36;;;;;;;5.50;2.60;;;;;;;9.40;84.65;101364.48;115808;1192;73631;-81
2021/09/30 01:34:05;;;;;;;5.00;1.80;;;;;;;9.40;84.31;101379.15;115789;1192;74764;-81
2021/09/30 02:26:51;;;;;;;8.60;1.90;;;;;;;9.59;82.30;101414.49;115805;1192;60394;-80
2021/09/30 02:29:28;;;;;;;7.40;1.70;;;;;;;9.58;82.90;101408.20;115597;1193;74555;-80
2021/09/30 02:59:41;;;;;;;2.80;2.10;;;;;;;9.17;84.59;101426.36;115724;1193;72255;-81
2021/09/30 03:02:09;;;;;;;7.70;2.80;;;;;;;9.15;84.56;101424.41;115816;1193;72577;-81
2021/09/30 03:04:38;;;;;;;5.40;2.20;;;;;;;9.15;84.50;101435.73;115831;1192;62023;-81
2021/09/30 03:07:06;;;;;;;4.10;1.90;;;;;;;9.13;84.40;101442.77;115805;1192;60431;-81
2021/09/30 03:09:42;;;;;;;5.90;1.90;;;;;;;9.12;84.44;101435.31;115794;1192;75348;-81
2021/09/30 03:12:30;;;;;;;6.40;1.90;;;;;;;9.09;84.73;101447.73;115826;1192;72006;-81
2021/09/30 03:15:08;;;;;;;3.30;2.10;;;;;;;9.06;84.87;101454.28;115851;1192;73676;-81
2021/09/30 03:20:38;;;;;;;4.30;2.00;;;;;;;8.98;85.29;101460.05;115468;1195;60680;-81
2021/09/30 03:23:09;;;;;;;3.10;2.10;;;;;;;8.94;85.37;101459.89;115834;1192;73458;-81
2021/09/30 03:25:37;;;;;;;6.10;2.40;;;;;;;8.90;85.59;101459.37;115865;1193;72203;-81
2021/09/30 03:28:05;;;;;;;9.50;2.10;;;;;;;8.88;85.72;101459.09;115840;1192;72737;-81
2021/09/30 03:30:32;;;;;;;7.10;2.30;;;;;;;8.84;85.73;101461.94;115822;1192;61920;-82
2021/09/30 03:33:02;;;;;;;6.00;2.30;;;;;;;8.79;85.97;101462.38;115872;1192;60394;-82
2021/09/30 03:35:30;;;;;;;5.50;2.40;;;;;;;8.76;85.91;101463.17;115875;1192;74734;-81
2021/09/30 03:37:59;;;;;;;6.30;2.50;;;;;;;8.74;86.36;101464.34;115742;1193;72464;-81
2021/09/30 03:40:25;;;;;;;8.40;2.70;;;;;;;8.72;86.43;101471.55;116299;1193;72714;-81
2021/09/30 03:42:52;;;;;;;10.70;3.20;;;;;;;8.69;86.71;101475.73;115888;1192;62056;-81
2021/09/30 03:45:18;;;;;;;6.00;2.30;;;;;;;8.67;86.58;101477.67;115908;1193;59451;-81
2021/09/30 03:47:45;;;;;;;5.50;2.90;;;;;;;8.64;86.85;101483.44;115609;1193;75592;-81
2021/09/30 03:50:22;;;;;;;6.90;1.90;;;;;;;8.61;86.76;101490.00;115714;1193;71330;-81
2021/09/30 04:00:18;;;;;;;5.30;2.70;;;;;;;8.47;87.59;101489.02;115865;1192;75025;-81
2021/09/30 04:02:44;;;;;;;4.30;2.30;;;;;;;8.45;87.95;101486.26;115887;1192;71601;-82
2021/09/30 04:05:11;;;;;;;3.40;2.70;;;;;;;8.42;87.68;101492.31;115568;1193;72686;-82
2021/09/30 04:07:38;;;;;;;4.40;2.80;;;;;;;8.38;87.93;101494.16;115895;1192;63044;-81
2021/09/30 04:10:05;;;;;;;4.00;2.80;;;;;;;8.35;88.43;101492.38;115829;1192;60935;-81
2021/09/30 04:12:32;;;;;;;4.30;2.70;;;;;;;8.32;88.24;101497.23;115869;1192;73777;-82
2021/09/30 04:14:58;;;;;;;6.60;3.10;;;;;;;8.30;88.46;101500.08;115830;1192;70200;-82
2021/09/30 04:17:25;;;;;;;7.30;3.30;;;;;;;8.28;88.69;101504.66;115838;1192;73601;-82
2021/09/30 04:19:52;;;;;;;5.80;3.70;;;;;;;8.28;88.65;101510.15;115865;1192;62816;-81
2021/09/30 04:22:18;;;;;;;6.70;3.90;;;;;;;8.27;88.78;101509.84;115714;1193;60271;-82
2021/09/30 04:24:45;;;;;;;11.30;4.60;;;;;;;8.27;88.81;101512.88;115858;1192;74897;-82
2021/09/30 04:27:12;;;;;;;5.30;3.20;;;;;;;8.26;88.99;101514.02;115855;1193;70671;-85
2021/09/30 04:29:38;;;;;;;5.10;3.60;;;;;;;8.24;88.91;101516.27;115855;1192;72738;-82
2021/09/30 04:32:05;;;;;;;7.10;3.70;;;;;;;8.23;89.19;101519.02;115869;1193;58903;-82
2021/09/30 04:34:32;;;;;;;8.80;4.20;;;;;;;8.24;89.27;101520.03;115900;1192;60220;-81
2021/09/30 04:36:59;;;;;;;5.50;3.40;;;;;;;8.24;88.83;101520.17;116091;1193;75730;-81
2021/09/30 04:39:25;;;;;;;5.40;4.10;;;;;;;8.22;88.92;101521.21;116135;1192;71531;-81
2021/09/30 04:41:52;;;;;;;4.50;3.40;;;;;;;8.20;88.91;101526.20;116066;1192;72833;-77
2021/09/30 04:44:20;;;;;;;5.30;3.00;;;;;;;8.18;89.28;101524.25;115774;1192;59386;-77
2021/09/30 04:46:47;;;;;;;4.00;3.60;;;;;;;8.19;89.04;101529.13;115905;1192;61391;-77
2021/09/30 04:49:14;;;;;;;4.80;3.30;;;;;;;8.18;89.28;101533.54;115794;1192;75590;-77
2021/09/30 04:51:41;;;;;;;4.70;3.10;;;;;;;8.20;88.96;101535.58;115804;1192;72124;-76
2021/09/30 04:54:08;;;;;;;8.30;3.40;;;;;;;8.19;89.05;101540.52;115750;1192;73759;-76
2021/09/30 04:56:35;;;;;;;4.40;3.50;;;;;;;8.17;89.32;101539.97;115870;1192;62681;-76
2021/09/30 04:59:03;;;;;;;5.30;3.70;;;;;;;8.14;89.45;101540.91;115711;1192;60221;-77
2021/09/30 05:01:29;;;;;;;6.80;3.60;;;;;;;8.13;89.41;101546.67;115758;1192;74723;-76
2021/09/30 05:03:56;;;;;;;5.80;3.30;;;;;;;8.13;89.33;101547.36;115798;1192;72086;-76
2021/09/30 05:06:23;;;;;;;3.40;2.40;;;;;;;8.12;89.48;101542.92;115845;1192;59526;-76
2021/09/30 05:08:50;;;;;;;9.70;3.90;;;;;;;8.11;89.69;101549.13;115830;1193;61889;-77
2021/09/30 05:11:18;;;;;;;7.30;3.80;;;;;;;8.11;89.75;101546.70;115831;1192;59965;-76
2021/09/30 05:13:44;;;;;;;6.20;4.20;;;;;;;8.10;89.62;101547.12;115714;1193;75913;-77
2021/09/30 05:16:13;;;;;;;8.80;4.00;;;;;;;8.10;89.84;101548.90;115795;1193;70966;-77
2021/09/30 05:18:46;;;;;;;6.00;3.70;;;;;;;8.12;89.74;101555.91;115868;1193;72593;-77
2021/09/30 05:21:14;;;;;;;5.70;3.10;;;;;;;8.14;89.77;101552.60;115861;1186;61766;-77
2021/09/30 05:23:41;;;;;;;6.00;3.70;;;;;;;8.15;89.86;101557.27;115869;1192;61541;-77
2021/09/30 05:26:08;;;;;;;6.20;4.00;;;;;;;8.14;89.60;101560.69;115816;1192;75369;-77
2021/09/30 05:28:35;;;;;;;12.70;4.50;;;;;;;8.13;89.76;101560.05;115701;1193;71808;-77
2021/09/30 05:31:04;;;;;;;8.30;4.90;;;;;;;8.14;89.84;101572.19;115647;1193;72896;-74
2021/09/30 05:33:30;;;;;;;6.30;3.50;;;;;;;8.15;89.73;101567.13;115700;1193;63197;-75
2021/09/30 05:35:57;;;;;;;6.40;4.40;;;;;;;8.18;89.82;101573.61;115836;1193;60259;-74
2021/09/30 05:38:24;;;;;;;13.00;6.40;;;;;;;8.20;89.94;101573.02;115783;1192;76052;-75
2021/09/30 05:40:50;;;;;;;9.40;5.90;;;;;;;8.24;89.95;101582.41;115794;1193;72174;-75
2021/09/30 05:43:42;;;;;;;4.70;3.40;;;;;;;8.28;89.91;101580.80;115814;1193;72583;-75
2021/09/30 05:46:06;;;;;;;5.50;3.20;;;;;;;8.34;89.88;101578.43;115670;1193;63098;-75
2021/09/30 05:48:32;;;;;;;9.20;5.70;;;;;;;8.39;89.71;101582.97;115626;1194;60001;-75
2021/09/30 05:50:59;;;;;;;15.50;8.00;;;;;;;8.43;89.23;101577.73;115876;1193;74736;-75
2021/09/30 05:53:26;;;;;;;11.10;6.20;;;;;;;8.47;88.99;101583.17;115818;1193;72001;-75
2021/09/30 05:55:53;;;;;;;7.50;5.20;;;;;;;8.50;88.82;101578.95;115545;1194;58888;-74
2021/09/30 05:58:19;;;;;;;9.10;5.60;;;;;;;8.52;88.76;101578.48;115789;1192;59138;-74
2021/09/30 06:09:41;;;;;;;15.00;9.30;;;;;;;8.52;88.78;101586.35;115726;1193;73705;-74
2021/09/30 06:11:45;;;;;;;8.80;6.00;;;;;;;8.57;88.80;101583.81;115787;1193;62643;-73
2021/09/30 06:14:24;;;;;;;10.90;5.00;;;;;;;8.61;88.39;101588.59;115669;1193;60567;-73
2021/09/30 06:16:51;;;;;;;18.30;8.00;;;;;;;8.65;88.59;101588.20;115814;1193;73628;-74
2021/09/30 06:19:29;;;;;;;15.70;8.50;;;;;;;8.72;88.16;101590.46;115771;1193;70881;-74
2021/09/30 06:21:55;;;;;;;9.10;5.10;;;;;;;8.78;87.79;101591.77;115825;1193;72628;-73
2021/09/30 06:24:23;;;;;;;8.90;4.70;;;;;;;8.87;87.65;101588.17;115857;1186;58910;-73
2021/09/30 06:26:50;;;;;;;10.20;4.70;;;;;;;8.92;87.29;101589.75;115753;1193;60250;-73
2021/09/30 06:29:17;;;;;;;15.20;8.80;;;;;;;9.00;86.45;101592.27;115848;1193;75485;-73
2021/09/30 06:31:43;;;;;;;11.30;6.80;;;;;;;9.07;85.89;101592.65;115634;1193;69933;-73
2021/09/30 06:34:10;;;;;;;18.50;9.40;;;;;;;9.16;86.06;101595.89;115705;1193;74054;-73
2021/09/30 06:36:37;;;;;;;14.90;7.70;;;;;;;9.23;85.85;101597.67;115731;1193;63020;-73
2021/09/30 06:39:04;;;;;;;7.30;4.80;;;;;;;9.30;85.67;101595.63;115858;1193;60465;-73
2021/09/30 06:41:31;;;;;;;14.80;7.60;;;;;;;9.36;85.27;101601.21;115729;1192;75977;-73
2021/09/30 06:44:15;;;;;;;12.50;6.20;;;;;;;9.43;84.94;101598.45;115711;1193;72234;-73
2021/09/30 06:46:41;;;;;;;11.50;6.20;;;;;;;9.49;84.81;101601.27;115785;1193;72503;-74
2021/09/30 06:49:08;;;;;;;9.40;5.60;;;;;;;9.55;84.38;101604.56;115774;1193;61935;-73
2021/09/30 06:51:35;;;;;;;4.70;2.90;;;;;;;9.60;84.25;101604.44;115806;1193;58786;-73
2021/09/30 06:54:03;;;;;;;8.00;3.90;;;;;;;9.65;84.12;101607.52;115675;1193;74565;-73
2021/09/30 06:56:30;;;;;;;21.10;11.20;;;;;;;9.68;83.92;101607.55;115772;1193;71626;-73
2021/09/30 06:59:05;;;;;;;10.70;5.30;;;;;;;9.74;83.66;101611.73;115820;1193;73601;-73
2021/09/30 07:01:35;;;;;;;5.90;3.70;;;;;;;9.81;83.74;101615.13;115736;1193;63002;-74
2021/09/30 07:04:06;;;;;;;12.60;6.30;;;;;;;9.88;83.72;101614.29;115705;1193;60287;-74
2021/09/30 07:06:32;;;;;;;5.80;3.50;;;;;;;9.95;83.00;101620.71;115801;1193;75120;-74
2021/09/30 07:08:59;;;;;;;9.70;5.90;;;;;;;10.02;83.04;101621.96;115799;1193;70279;-74
2021/09/30 07:11:25;;;;;;;12.10;7.50;;;;;;;10.09;82.93;101628.55;115741;1193;72240;-74
2021/09/30 07:13:52;;;;;;;8.50;5.00;;;;;;;10.16;82.68;101630.13;115656;1187;62035;-74
2021/09/30 07:16:19;;;;;;;14.50;8.00;;;;;;;10.23;82.31;101639.95;115748;1193;58907;-73
2021/09/30 07:18:45;;;;;;;6.10;4.10;;;;;;;10.28;82.29;101639.06;115859;1191;76051;-73
2021/09/30 07:21:12;;;;;;;7.40;4.60;;;;;;;10.33;82.02;101635.40;115694;1193;72227;-73
2021/09/30 07:23:39;;;;;;;6.20;5.10;;;;;;;10.38;81.80;101643.79;115816;1193;72497;-73
2021/09/30 07:26:07;;;;;;;9.10;4.90;;;;;;;10.39;81.06;101641.52;115759;1193;60842;-74
2021/09/30 07:28:34;;;;;;;7.30;4.30;;;;;;;10.44;81.41;101641.81;115828;1193;60735;-74
2021/09/30 07:31:02;;;;;;;7.90;4.40;;;;;;;10.48;81.09;101640.87;115710;1193;74782;-74
2021/09/30 07:33:30;;;;;;;6.30;4.40;;;;;;;10.52;80.98;101642.60;115711;1193;71532;-74
2021/09/30 07:35:57;;;;;;;7.40;4.40;;;;;;;10.59;80.96;101644.73;115658;1193;72615;-74
2021/09/30 07:38:24;;;;;;;7.40;4.00;;;;;;;10.65;80.54;101650.85;115832;1193;61271;-74
2021/09/30 07:40:51;;;;;;;7.60;4.70;;;;;;;10.72;80.46;101649.82;115765;1193;60221;-74
2021/09/30 07:43:18;;;;;;;7.80;4.90;;;;;;;10.78;80.02;101641.95;115745;1193;75635;-74
2021/09/30 07:45:45;;;;;;;10.00;4.70;;;;;;;10.88;79.78;101648.79;115769;1193;72300;-74
2021/09/30 07:48:11;;;;;;;10.90;4.40;;;;;;;10.94;79.14;101655.41;115787;1193;73634;-75
2021/09/30 07:50:39;;;;;;;8.30;3.50;;;;;;;11.02;78.87;101653.02;115693;1193;58980;-74
2021/09/30 07:53:06;;;;;;;7.40;4.20;;;;;;;11.06;77.51;101666.25;115889;1192;61293;-74
2021/09/30 07:55:32;;;;;;;8.20;3.60;;;;;;;11.10;77.36;101661.58;115709;1193;74530;-74
2021/09/30 07:57:59;;;;;;;6.00;3.60;;;;;;;11.15;76.63;101659.45;115831;1193;71028;-74
2021/09/30 08:00:25;;;;;;;6.10;3.20;;;;;;;11.21;76.34;101662.77;115853;1193;71736;-74
2021/09/30 08:02:52;;;;;;;7.50;3.30;;;;;;;11.27;75.90;101666.21;115824;1193;59469;-75
2021/09/30 08:05:19;;;;;;;10.60;4.20;;;;;;;11.31;75.46;101664.11;115844;1193;60031;-74
2021/09/30 08:07:47;;;;;;;9.20;3.70;;;;;;;11.36;75.85;101662.48;115801;1192;74256;-74
2021/09/30 08:10:13;;;;;;;6.60;3.50;;;;;;;11.42;75.48;101671.28;115948;1192;71777;-75
2021/09/30 08:12:40;;;;;;;5.60;3.30;;;;;;;11.45;75.03;101684.95;115775;1193;72646;-74
2021/09/30 08:15:07;;;;;;;8.20;3.30;;;;;;;11.48;74.62;101684.88;115766;1193;61988;-74
2021/09/30 08:17:34;;;;;;;8.60;3.40;;;;;;;11.52;74.36;101678.09;115704;1193;60348;-74
2021/09/30 08:20:01;;;;;;;8.20;2.90;;;;;;;11.55;74.33;101688.61;115776;1193;75475;-74
2021/09/30 08:22:27;;;;;;;6.90;2.50;;;;;;;11.59;74.66;101684.77;115853;1193;58933;-74
2021/09/30 08:24:53;;;;;;;10.60;3.10;;;;;;;11.68;74.38;101692.34;115645;1193;58937;-74
2021/09/30 08:27:20;;;;;;;3.40;2.50;;;;;;;11.70;73.38;101698.03;115833;1193;58833;-73
2021/09/30 08:29:47;;;;;;;5.60;2.50;;;;;;;11.75;74.03;101695.17;115734;1193;58853;-74
2021/09/30 08:32:13;;;;;;;3.70;2.00;;;;;;;11.81;73.73;101695.40;115724;1193;59107;-74
2021/09/30 08:34:40;;;;;;;4.90;2.50;;;;;;;11.94;74.27;101690.46;115714;1193;58232;-74
2021/09/30 08:37:07;;;;;;;7.80;2.20;;;;;;;12.06;73.66;101688.48;115738;1193;58934;-74
2021/09/30 08:39:34;;;;;;;3.60;1.90;;;;;;;12.16;72.95;101696.31;115806;1192;61890;-74
2021/09/30 08:42:04;;;;;;;10.00;2.90;;;;;;;12.24;72.41;101703.39;115852;1193;61317;-74
2021/09/30 08:44:33;;;;;;;3.80;1.70;;;;;;;12.28;72.02;101703.01;115780;1193;74574;-75
2021/09/30 08:47:05;;;;;;;3.70;1.80;;;;;;;12.40;72.02;101706.56;115770;1193;70858;-74
2021/09/30 08:49:33;;;;;;;4.80;1.90;;;;;;;12.51;71.81;101710.22;115795;1193;74056;-74
2021/09/30 08:52:02;;;;;;;3.00;1.90;;;;;;;12.56;70.85;101716.16;115808;1193;60023;-74
2021/09/30 08:54:28;;;;;;;7.80;3.20;;;;;;;12.57;70.19;101722.98;115862;1193;61542;-74
2021/09/30 08:56:55;;;;;;;4.00;1.80;;;;;;;12.53;70.72;101714.92;115721;1193;75318;-74
2021/09/30 08:59:28;;;;;;;6.20;2.00;;;;;;;12.52;70.41;101718.77;115851;1193;70759;-74
2021/09/30 09:02:12;;;;;;;6.00;1.60;;;;;;;12.57;70.78;101713.23;115631;1193;73852;-74
2021/09/30 09:04:52;;;;;;;7.80;1.80;;;;;;;12.73;70.83;101713.19;115788;1193;61946;-74
2021/09/30 09:07:24;;;;;;;5.40;1.90;;;;;;;12.87;70.80;101718.27;115825;1193;62299;-74
2021/09/30 09:09:50;;;;;;;5.70;2.00;;;;;;;12.92;69.87;101719.67;115959;1193;75024;-74
2021/09/30 09:12:18;;;;;;;4.60;1.60;;;;;;;12.99;68.93;101721.77;115796;1193;71279;-74
2021/09/30 09:14:45;;;;;;;4.90;1.40;;;;;;;13.05;69.25;101716.48;115807;1193;73931;-73
2021/09/30 09:17:15;;;;;;;7.10;3.00;;;;;;;13.12;69.17;101721.74;115734;1193;60445;-74
2021/09/30 09:19:47;;;;;;;5.90;1.70;;;;;;;13.19;69.63;101713.84;115745;1193;60497;-74
2021/09/30 09:22:22;;;;;;;5.90;2.10;;;;;;;13.34;69.15;101715.87;115737;1193;74727;-74
2021/09/30 09:25:04;;;;;;;4.00;1.70;;;;;;;13.46;68.48;101711.57;115870;1193;71152;-74
2021/09/30 09:27:49;;;;;;;2.90;1.20;;;;;;;13.56;68.50;101706.48;115734;1193;72618;-74
2021/09/30 09:30:46;;;;;;;5.20;2.00;;;;;;;13.67;68.31;101711.14;115839;1193;61118;-75
2021/09/30 09:33:21;;;;;;;6.40;1.80;;;;;;;13.75;67.05;101711.70;115776;1193;59929;-75
2021/09/30 09:35:58;;;;;;;6.00;1.40;;;;;;;13.69;66.28;101707.52;115728;1193;74620;-75
2021/09/30 09:38:30;;;;;;;5.40;1.20;;;;;;;13.65;65.95;101711.59;115796;1193;71648;-74
2021/09/30 09:40:59;;;;;;;4.50;1.50;;;;;;;13.66;66.85;101711.77;115757;1193;73597;-74
2021/09/30 09:43:42;;;;;;;4.80;1.30;;;;;;;13.69;66.61;101715.02;115767;1186;60468;-75
2021/09/30 09:46:13;;;;;;;6.10;1.60;;;;;;;13.76;67.08;101714.53;115722;1193;60216;-75
2021/09/30 09:48:54;;;;;;;3.30;1.30;;;;;;;13.83;65.40;101720.41;115782;1193;75816;-75
2021/09/30 09:51:21;;;;;;;5.80;1.20;;;;;;;13.84;63.60;101720.24;115846;1193;71220;-74
2021/09/30 09:53:48;;;;;;;3.90;1.30;;;;;;;13.82;64.18;101721.58;115689;1194;72610;-74
2021/09/30 09:56:18;;;;;;;4.30;1.00;;;;;;;13.81;62.70;101726.05;115813;1193;60069;-74
2021/09/30 09:59:03;;;;;;;2.50;1.00;;;;;;;13.77;63.65;101719.86;115821;1193;59285;-74
2021/09/30 10:01:58;;;;;;;4.90;1.40;;;;;;;13.91;63.29;101719.16;115738;1193;74522;-75
2021/09/30 10:04:26;;;;;;;3.10;0.70;;;;;;;14.07;62.69;101723.00;115794;1193;72016;-74
2021/09/30 10:06:53;;;;;;;4.00;1.00;;;;;;;14.05;61.79;101720.08;115789;1193;73880;-74
2021/09/30 10:09:21;;;;;;;3.60;1.00;;;;;;;14.13;61.26;101729.65;115693;1193;59644;-74
2021/09/30 10:11:47;;;;;;;2.60;0.80;;;;;;;14.18;60.28;101723.71;115816;1193;60507;-74
2021/09/30 10:14:18;;;;;;;7.00;1.10;;;;;;;14.17;60.15;101722.42;115729;1193;75771;-74
2021/09/30 10:16:48;;;;;;;7.80;1.90;;;;;;;14.12;60.26;101727.77;115678;1194;72206;-74
2021/09/30 10:19:15;;;;;;;3.60;1.10;;;;;;;14.14;60.69;101720.80;115733;1193;72015;-74
2021/09/30 10:21:42;;;;;;;3.70;1.20;;;;;;;14.26;60.08;101727.45;115749;1193;59964;-74
2021/09/30 10:24:19;;;;;;;2.80;0.80;;;;;;;14.37;60.19;101715.79;115738;1193;58121;-74
2021/09/30 10:26:50;;;;;;;6.80;1.50;;;;;;;14.49;59.38;101718.43;115739;1193;75588;-74
2021/09/30 10:29:42;;;;;;;4.70;0.90;;;;;;;14.67;59.50;101713.55;115725;1193;72457;-74
2021/09/30 10:32:09;;;;;;;3.40;0.90;;;;;;;14.86;59.63;101725.11;115735;1193;72509;-74
2021/09/30 10:34:39;;;;;;;5.30;1.20;;;;;;;14.99;59.90;101736.49;115666;1193;59936;-75
2021/09/30 10:37:26;;;;;;;3.90;0.70;;;;;;;14.96;57.96;101732.05;115661;1193;60309;-75
2021/09/30 10:40:19;;;;;;;1.80;0.70;;;;;;;14.83;57.24;101734.58;115746;1192;75595;-75
2021/09/30 10:42:55;;;;;;;7.30;1.30;;;;;;;14.77;57.01;101738.08;115731;1193;71994;-75
2021/09/30 10:45:24;;;;;;;2.50;1.00;;;;;;;14.68;57.23;101728.94;115739;1193;72504;-75
2021/09/30 10:47:53;;;;;;;4.50;0.90;;;;;;;14.68;56.39;101731.98;115768;1193;61185;-75
2021/09/30 10:50:47;;;;;;;4.50;0.80;;;;;;;14.80;56.32;101732.35;115721;1193;60400;-74
2021/09/30 10:53:13;;;;;;;7.60;1.00;;;;;;;14.98;55.93;101733.94;115703;1193;74595;-74
2021/09/30 10:55:40;;;;;;;3.90;1.10;;;;;;;15.11;55.66;101730.42;115773;1193;71135;-74
2021/09/30 10:58:24;;;;;;;4.10;0.80;;;;;;;15.38;56.79;101720.23;115665;1193;72643;-74
2021/09/30 11:00:57;;;;;;;3.70;0.60;;;;;;;15.61;55.04;101723.16;115803;1193;60262;-75
2021/09/30 11:03:25;;;;;;;3.50;1.10;;;;;;;15.68;53.27;101734.34;115733;1193;62195;-75
2021/09/30 11:06:12;;;;;;;4.90;0.80;;;;;;;15.63;53.15;101728.37;115751;1193;74526;-75
2021/09/30 11:08:39;;;;;;;3.70;0.90;;;;;;;15.54;53.56;101733.39;115818;1192;71010;-74
2021/09/30 11:11:07;;;;;;;2.00;0.80;;;;;;;15.41;53.71;101726.31;115739;1193;74018;-75
2021/09/30 11:13:46;;;;;;;4.90;0.80;;;;;;;15.34;53.81;101733.08;115647;1194;61222;-75
2021/09/30 11:16:17;;;;;;;2.30;0.60;;;;;;;15.29;54.78;101725.84;115723;1193;60365;-75
2021/09/30 11:18:58;;;;;;;4.40;1.20;;;;;;;15.22;55.16;101728.56;115669;1193;75605;-75
2021/09/30 11:21:31;;;;;;;4.30;1.20;;;;;;;15.29;54.99;101722.41;115845;1187;72035;-74
2021/09/30 11:24:17;;;;;;;5.30;1.20;;;;;;;15.27;53.94;101728.23;115690;1193;73841;-75
2021/09/30 11:26:49;;;;;;;3.30;0.70;;;;;;;15.25;54.70;101720.99;115689;1193;60502;-75
2021/09/30 11:29:22;;;;;;;5.20;1.30;;;;;;;15.42;55.14;101725.42;115743;1193;60609;-75
2021/09/30 11:31:54;;;;;;;3.20;0.80;;;;;;;15.50;53.87;101734.36;115755;1193;74346;-75
2021/09/30 11:34:25;;;;;;;2.60;0.80;;;;;;;15.57;52.86;101739.28;115765;1193;72141;-74
2021/09/30 11:36:53;;;;;;;4.70;1.10;;;;;;;15.86;53.04;101726.22;115736;1193;73838;-74
2021/09/30 11:39:20;;;;;;;4.80;1.00;;;;;;;16.24;51.73;101725.69;115836;1193;62901;-74
2021/09/30 11:41:48;;;;;;;4.60;0.90;;;;;;;16.69;51.36;101725.72;115697;1193;60242;-74
2021/09/30 11:44:17;;;;;;;3.30;1.40;;;;;;;17.17;49.33;101724.59;115792;1193;74675;-74
2021/09/30 11:46:51;;;;;;;6.40;1.50;;;;;;;17.55;47.69;101724.31;115701;1193;72232;-74
2021/09/30 11:49:19;;;;;;;3.70;0.60;;;;;;;17.83;46.43;101724.83;115735;1193;72291;-74
2021/09/30 11:51:48;;;;;;;5.40;0.80;;;;;;;18.08;45.42;101728.27;115737;1193;61633;-74
2021/09/30 11:54:33;;;;;;;3.80;1.10;;;;;;;18.02;45.35;101724.69;115710;1193;61415;-74
2021/09/30 11:57:00;;;;;;;7.50;0.90;;;;;;;18.45;45.25;101727.39;115739;1193;74740;-75
2021/09/30 11:59:29;;;;;;;3.90;1.30;;;;;;;18.63;44.07;101725.98;116040;1192;71473;-76
2021/09/30 12:01:57;;;;;;;4.20;1.20;;;;;;;18.44;44.31;101736.80;115689;1193;72652;-76
2021/09/30 12:04:50;;;;;;;12.40;0.90;;;;;;;18.36;44.59;101734.46;115745;1193;62911;-76
2021/09/30 12:07:25;;;;;;;5.70;1.00;;;;;;;18.37;44.66;101726.94;115712;1193;59998;-76
2021/09/30 12:09:54;;;;;;;4.70;1.00;;;;;;;18.88;43.23;101731.17;115733;1193;75573;-76
2021/09/30 12:12:35;;;;;;;3.40;0.80;;;;;;;19.35;42.39;101723.67;115750;1193;72064;-76
2021/09/30 12:15:05;;;;;;;5.10;0.80;;;;;;;20.09;40.91;101728.30;115665;1193;73948;-76
2021/09/30 12:17:37;;;;;;;3.70;0.70;;;;;;;20.72;38.87;101724.71;115720;1193;61021;-76
2021/09/30 12:20:06;;;;;;;3.00;0.90;;;;;;;20.18;39.06;101734.11;115734;1193;60299;-76
2021/09/30 12:22:34;;;;;;;4.70;1.00;;;;;;;19.32;40.43;101737.41;115756;1193;74659;-76
2021/09/30 12:25:26;;;;;;;4.30;0.80;;;;;;;18.85;41.48;101733.88;115679;1193;71056;-76
2021/09/30 12:27:55;;;;;;;3.00;0.60;;;;;;;18.15;44.16;101732.85;115759;1193;73859;-76
2021/09/30 12:30:26;;;;;;;4.90;0.50;;;;;;;17.47;44.95;101733.73;115780;1193;60249;-76
2021/09/30 12:32:59;;;;;;;2.30;0.70;;;;;;;16.91;46.73;101739.27;115668;1194;60228;-76
2021/09/30 12:35:28;;;;;;;4.20;1.00;;;;;;;16.59;48.16;101733.56;115708;1193;75626;-76
2021/09/30 12:38:02;;;;;;;5.60;0.80;;;;;;;16.37;48.85;101734.91;115810;1193;72046;-76
2021/09/30 12:40:36;;;;;;;3.50;0.70;;;;;;;16.94;48.24;101731.78;115619;1193;72522;-74
2021/09/30 12:43:04;;;;;;;4.10;1.00;;;;;;;18.06;44.72;101735.73;115653;1193;60457;-76
2021/09/30 12:45:35;;;;;;;4.60;1.10;;;;;;;18.17;44.19;101728.80;115665;1193;59967;-75
2021/09/30 12:48:02;;;;;;;5.20;0.70;;;;;;;18.20;44.14;101732.79;115657;1186;76014;-76
2021/09/30 12:50:39;;;;;;;4.20;0.80;;;;;;;18.05;44.90;101735.55;115715;1193;70937;-76
2021/09/30 12:53:07;;;;;;;5.50;1.20;;;;;;;17.64;45.90;101728.20;115638;1194;72698;-75
2021/09/30 12:55:34;;;;;;;4.80;0.90;;;;;;;18.03;44.98;101733.73;115757;1193;61094;-76
2021/09/30 12:58:01;;;;;;;5.20;1.80;;;;;;;19.30;42.09;101730.74;115740;1193;59965;-76
2021/09/30 13:00:34;;;;;;;6.60;1.10;;;;;;;20.13;39.38;101728.54;115727;1193;75607;-76
2021/09/30 13:03:13;;;;;;;3.10;1.50;;;;;;;20.07;38.85;101724.75;115749;1193;71237;-78
2021/09/30 13:05:46;;;;;;;4.50;0.80;;;;;;;19.31;40.14;101722.18;115795;1193;72523;-75
2021/09/30 13:08:33;;;;;;;2.60;0.80;;;;;;;18.85;41.31;101724.98;115769;1192;60019;-75
2021/09/30 13:11:30;;;;;;;6.10;1.40;;;;;;;18.97;42.06;101720.33;115745;1193;60215;-73
2021/09/30 13:14:15;;;;;;;3.90;0.90;;;;;;;19.53;41.66;101716.53;115692;1193;75961;-73
2021/09/30 13:16:43;;;;;;;;;;;;;;;20.33;40.98;101717.27;115708;1193;70908;-74
2021/09/30 13:19:10;;;;;;;3.30;0.90;;;;;;;21.21;38.52;101714.13;115703;1193;72284;-74
2021/09/30 13:21:58;;;;;;;4.00;1.00;;;;;;;21.92;37.67;101707.89;115649;1193;61635;-75
2021/09/30 13:24:26;;;;;;;3.80;0.80;;;;;;;23.08;35.18;101700.56;115691;1193;61201;-75
2021/09/30 13:26:53;;;;;;;3.00;0.70;;;;;;;22.32;35.52;101706.15;115660;1193;74617;-76
2021/09/30 13:29:40;;;;;;;3.80;0.90;;;;;;;22.69;34.21;101710.06;115709;1193;71046;-76
2021/09/30 13:32:06;;;;;;;5.70;0.90;;;;;;;23.91;32.38;101704.64;115761;1193;72516;-75
2021/09/30 13:34:33;;;;;;;4.00;1.10;;;;;;;24.96;30.84;101693.16;115710;1193;60297;-76
2021/09/30 13:37:00;;;;;;;2.80;0.80;;;;;;;25.67;28.92;101689.55;115668;1193;61226;-76
2021/09/30 13:39:26;;;;;;;3.70;1.30;;;;;;;26.06;27.56;101693.75;115635;1193;74639;-75
2021/09/30 13:41:53;;;;;;;3.50;0.90;;;;;;;26.34;27.34;101685.52;115677;1193;59169;-75
2021/09/30 13:44:19;;;;;;;3.40;1.20;;;;;;;26.50;27.48;101689.04;115739;1193;59787;-75
2021/09/30 13:46:46;;;;;;;4.30;1.20;;;;;;;24.96;29.00;101692.74;115649;1193;61401;-75
2021/09/30 13:49:12;;;;;;;4.40;0.90;;;;;;;23.43;31.32;101686.54;115737;1193;62047;-75
2021/09/30 13:51:39;;;;;;;4.50;0.90;;;;;;;22.22;33.73;101693.66;115668;1193;75559;-76
2021/09/30 13:54:06;;;;;;;3.90;1.80;;;;;;;21.65;35.21;101685.03;115740;1193;72079;-75
2021/09/30 13:56:32;;;;;;;4.10;0.80;;;;;;;21.62;35.03;101689.14;115738;1193;58834;-75
2021/09/30 13:58:59;;;;;;;4.30;0.80;;;;;;;22.53;33.93;101685.42;115687;1193;61351;-75
2021/09/30 14:01:45;;;;;;;4.40;0.90;;;;;;;23.60;32.00;101687.57;115678;1193;62118;-75
2021/09/30 14:04:12;;;;;;;4.30;1.10;;;;;;;24.41;31.01;101687.33;115713;1193;74531;-76
2021/09/30 14:06:38;;;;;;;7.20;1.10;;;;;;;24.59;30.47;101678.33;115746;1193;59010;-76
2021/09/30 14:09:05;;;;;;;5.40;1.10;;;;;;;25.08;29.79;101675.83;115734;1192;58933;-76
2021/09/30 14:11:31;;;;;;;4.40;1.20;;;;;;;25.26;29.59;101680.61;115728;1193;61297;-76
2021/09/30 14:13:58;;;;;;;4.20;1.20;;;;;;;25.45;28.82;101683.98;115745;1193;59996;-76
2021/09/30 14:16:25;;;;;;;6.00;1.10;;;;;;;25.38;28.66;101689.15;115721;1193;59347;-76